Time;durP1;ratioP1;P1;durP2;ratioP2;P2;SDS_P1;SDS_P2;PMS_P1;PMS_P2;Temp;Humidity;BMP_temperature;BMP_pressure;BME280_temperature;BME280_humidity;BME280_pressure;Samples;Min_cycle;Max_cycle;Signal;HPM_P1;HPM_P2
2021/07/17 00:02:05;;;;;;;;;;;17.50;99.90;;;;;;5037375;28;19972;-79
2021/07/17 00:04:30;;;;;;;;;;;17.50;99.90;;;;;;5039802;28;19905;-78
2021/07/17 00:06:56;;;;;;;;;;;17.50;99.90;;;;;;5039509;28;19905;-78
2021/07/17 00:09:21;;;;;;;;;;;17.40;99.90;;;;;;5004909;28;19913;-78
2021/07/17 00:11:47;;;;;;;;;;;17.40;99.90;;;;;;5018249;28;19906;-79
2021/07/17 00:14:13;;;;;;;;;;;17.40;99.90;;;;;;5017371;28;19975;-79
2021/07/17 00:16:38;;;;;;;;;;;17.50;99.90;;;;;;5017106;28;19913;-79
2021/07/17 00:19:04;;;;;;;;;;;17.40;99.90;;;;;;5027543;28;19915;-78
2021/07/17 00:21:29;;;;;;;;;;;17.50;99.90;;;;;;5040613;28;19908;-78
2021/07/17 00:23:55;;;;;;;;;;;17.40;99.90;;;;;;5039985;28;19905;-78
2021/07/17 00:26:20;;;;;;;;;;;17.50;99.90;;;;;;5021328;28;19916;-79
2021/07/17 00:28:46;;;;;;;;;;;17.50;99.90;;;;;;5020118;28;19905;-78
2021/07/17 00:31:12;;;;;;;;;;;17.50;99.90;;;;;;5007099;28;19920;-78
2021/07/17 00:33:38;;;;;;;;;;;17.50;99.90;;;;;;5008268;28;19905;-78
2021/07/17 00:36:03;;;;;;;;;;;17.40;99.90;;;;;;5008246;28;19912;-78
2021/07/17 00:38:29;;;;;;;;;;;17.40;99.90;;;;;;5009426;28;19917;-79
2021/07/17 00:40:54;;;;;;;;;;;17.40;99.90;;;;;;5025908;28;19905;-78
2021/07/17 00:43:20;;;;;;;;;;;17.40;99.90;;;;;;5019374;28;20260;-78
2021/07/17 00:45:45;;;;;;;;;;;17.40;99.90;;;;;;5019189;28;19905;-78
2021/07/17 00:48:11;;;;;;;;;;;17.40;99.90;;;;;;5034492;28;19927;-78
2021/07/17 00:50:36;;;;;;;;;;;17.40;99.90;;;;;;5038777;28;19909;-78
2021/07/17 00:53:02;;;;;;;;;;;17.30;99.90;;;;;;5039014;28;19947;-77
2021/07/17 00:55:28;;;;;;;;;;;17.40;99.90;;;;;;5036963;28;19928;-77
2021/07/17 00:57:54;;;;;;;;;;;17.40;99.90;;;;;;5023353;28;19909;-77
2021/07/17 01:00:21;;;;;;;;;;;17.30;99.90;;;;;;5017100;28;19913;-77
2021/07/17 01:02:48;;;;;;;;;;;17.30;99.90;;;;;;5016938;28;20020;-77
2021/07/17 01:05:14;;;;;;;;;;;17.30;99.90;;;;;;4999216;28;19933;-77
2021/07/17 01:07:40;;;;;;;;;;;17.20;99.90;;;;;;5009876;28;20354;-77
2021/07/17 01:10:07;;;;;;;;;;;17.20;99.90;;;;;;5018768;28;19959;-77
2021/07/17 01:12:33;;;;;;;;;;;17.20;99.90;;;;;;5021737;28;20404;-78
2021/07/17 01:14:59;;;;;;;;;;;17.20;99.90;;;;;;5039827;28;19905;-78
2021/07/17 01:17:24;;;;;;;;;;;17.10;99.90;;;;;;5029910;28;19963;-79
2021/07/17 01:19:50;;;;;;;;;;;17.10;99.90;;;;;;5019832;28;19913;-78
2021/07/17 01:22:18;;;;;;;;;;;17.00;99.90;;;;;;5020903;28;19960;-79
2021/07/17 01:24:43;;;;;;;;;;;17.00;99.90;;;;;;5003054;28;19905;-79
2021/07/17 01:27:11;;;;;;;;;;;16.90;99.90;;;;;;5025567;28;19909;-77
2021/07/17 01:29:37;;;;;;;;;;;16.90;99.90;;;;;;5018168;28;19955;-77
2021/07/17 01:32:03;;;;;;;;;;;16.90;99.90;;;;;;5035437;28;19928;-77
2021/07/17 01:34:29;;;;;;;;;;;16.80;99.90;;;;;;5018193;28;19906;-77
2021/07/17 01:36:55;;;;;;;;;;;16.80;99.90;;;;;;5018181;28;20370;-77
2021/07/17 01:39:21;;;;;;;;;;;16.70;99.90;;;;;;5036269;28;19951;-78
2021/07/17 01:41:47;;;;;;;;;;;16.70;99.90;;;;;;5036771;28;19911;-78
2021/07/17 01:44:12;;;;;;;;;;;16.60;99.90;;;;;;5012226;28;19909;-79
2021/07/17 01:46:38;;;;;;;;;;;16.50;99.90;;;;;;5018761;28;19932;-78
2021/07/17 01:49:04;;;;;;;;;;;16.50;99.90;;;;;;5001168;28;19905;-78
2021/07/17 01:51:30;;;;;;;;;;;16.40;99.90;;;;;;5018476;28;19913;-79
2021/07/17 01:53:55;;;;;;;;;;;16.40;99.90;;;;;;5023603;28;19909;-79
2021/07/17 01:56:21;;;;;;;;;;;16.30;99.90;;;;;;5038327;28;19905;-79
2021/07/17 01:58:48;;;;;;;;;;;16.30;99.90;;;;;;5037367;28;20002;-79
2021/07/17 02:01:14;;;;;;;;;;;16.20;99.90;;;;;;5019590;28;19912;-79
2021/07/17 02:03:46;;;;;;;;;;;16.10;99.90;;;;;;5018997;28;19913;-79
2021/07/17 02:06:12;;;;;;;;;;;16.10;99.90;;;;;;5020608;28;19912;-79
2021/07/17 02:08:40;;;;;;;;;;;16.00;99.90;;;;;;5038790;28;19905;-79
2021/07/17 02:11:07;;;;;;;;;;;16.00;99.90;;;;;;5038083;28;19909;-79
2021/07/17 02:13:32;;;;;;;;;;;15.90;99.90;;;;;;5017633;28;20032;-78
2021/07/17 02:15:57;;;;;;;;;;;15.90;99.90;;;;;;5018216;28;19941;-78
2021/07/17 02:18:23;;;;;;;;;;;15.90;99.90;;;;;;5000072;28;19913;-78
2021/07/17 02:20:48;;;;;;;;;;;15.80;99.90;;;;;;5001516;28;19999;-78
2021/07/17 02:23:14;;;;;;;;;;;15.70;99.90;;;;;;5001657;28;19905;-78
2021/07/17 02:25:39;;;;;;;;;;;15.60;99.90;;;;;;5001332;28;19915;-78
2021/07/17 02:28:05;;;;;;;;;;;15.60;99.90;;;;;;5000962;28;20002;-78
2021/07/17 02:30:31;;;;;;;;;;;15.50;99.90;;;;;;5000935;28;19919;-78
2021/07/17 02:32:57;;;;;;;;;;;15.50;99.90;;;;;;5028509;28;20413;-78
2021/07/17 02:35:22;;;;;;;;;;;15.40;99.90;;;;;;5020755;28;19947;-78
2021/07/17 02:37:48;;;;;;;;;;;15.40;99.90;;;;;;5020432;28;19955;-78
2021/07/17 02:40:14;;;;;;;;;;;15.40;99.90;;;;;;5037055;28;19905;-78
2021/07/17 02:42:39;;;;;;;;;;;15.30;99.90;;;;;;5001006;28;20008;-79
2021/07/17 02:45:06;;;;;;;;;;;15.20;99.90;;;;;;5000668;28;19976;-79
2021/07/17 02:47:33;;;;;;;;;;;15.20;99.90;;;;;;5000982;28;19921;-79
2021/07/17 02:49:58;;;;;;;;;;;15.10;99.90;;;;;;5016643;28;20017;-78
2021/07/17 02:52:23;;;;;;;;;;;15.10;99.90;;;;;;5030687;28;19948;-77
2021/07/17 02:54:49;;;;;;;;;;;15.00;99.90;;;;;;4998554;28;19912;-77
2021/07/17 02:57:14;;;;;;;;;;;15.00;99.90;;;;;;5014969;28;19905;-77
2021/07/17 02:59:40;;;;;;;;;;;15.00;99.90;;;;;;5014968;28;19960;-77
2021/07/17 03:02:05;;;;;;;;;;;14.90;99.90;;;;;;4997038;28;19905;-77
2021/07/17 03:04:31;;;;;;;;;;;14.90;99.90;;;;;;5014593;28;19906;-77
2021/07/17 03:06:57;;;;;;;;;;;14.80;99.90;;;;;;5015626;28;19905;-77
2021/07/17 03:09:23;;;;;;;;;;;14.80;99.90;;;;;;5014440;28;19952;-76
2021/07/17 03:11:48;;;;;;;;;;;14.70;99.90;;;;;;5014311;28;19971;-76
2021/07/17 03:14:14;;;;;;;;;;;14.70;99.90;;;;;;5014923;28;19909;-76
2021/07/17 03:16:39;;;;;;;;;;;14.70;99.90;;;;;;5014470;28;19906;-76
2021/07/17 03:19:04;;;;;;;;;;;14.70;99.90;;;;;;5014501;28;19911;-76
2021/07/17 03:21:30;;;;;;;;;;;14.60;99.90;;;;;;4996749;28;19996;-76
2021/07/17 03:23:56;;;;;;;;;;;14.60;99.90;;;;;;4996654;28;19913;-76
2021/07/17 03:26:22;;;;;;;;;;;14.50;99.90;;;;;;4996776;28;19959;-76
2021/07/17 03:28:48;;;;;;;;;;;14.50;99.90;;;;;;5014355;28;19944;-76
2021/07/17 03:31:13;;;;;;;;;;;14.50;99.90;;;;;;5014184;28;19975;-76
2021/07/17 03:33:39;;;;;;;;;;;14.50;99.90;;;;;;4996758;28;19905;-77
2021/07/17 03:36:04;;;;;;;;;;;14.50;99.90;;;;;;5014649;28;19906;-77
2021/07/17 03:38:30;;;;;;;;;;;14.40;99.90;;;;;;5014018;28;20385;-76
2021/07/17 03:40:55;;;;;;;;;;;14.40;99.90;;;;;;5014887;28;19905;-76
2021/07/17 03:43:21;;;;;;;;;;;14.50;99.90;;;;;;5033782;28;19905;-76
2021/07/17 03:45:46;;;;;;;;;;;14.40;99.90;;;;;;5033907;28;19959;-76
2021/07/17 03:48:12;;;;;;;;;;;14.30;99.90;;;;;;5033462;28;19909;-76
2021/07/17 03:50:37;;;;;;;;;;;14.30;99.90;;;;;;5033565;28;19909;-77
2021/07/17 03:53:03;;;;;;;;;;;14.30;99.90;;;;;;5033636;28;20000;-77
2021/07/17 03:55:29;;;;;;;;;;;14.30;99.90;;;;;;5038291;28;20045;-77
2021/07/17 03:57:54;;;;;;;;;;;14.30;99.90;;;;;;5017255;28;19913;-76
2021/07/17 04:00:20;;;;;;;;;;;14.30;99.90;;;;;;5021047;28;20259;-77
2021/07/17 04:02:45;;;;;;;;;;;14.30;99.90;;;;;;5020688;28;19906;-77
2021/07/17 04:05:12;;;;;;;;;;;14.30;99.90;;;;;;5002865;28;19905;-77
2021/07/17 04:07:38;;;;;;;;;;;14.30;99.90;;;;;;5004971;28;19917;-77
2021/07/17 04:10:04;;;;;;;;;;;14.40;99.90;;;;;;5039726;28;19909;-77
2021/07/17 04:12:30;;;;;;;;;;;14.40;99.90;;;;;;5022326;28;19905;-77
2021/07/17 04:14:56;;;;;;;;;;;14.40;99.90;;;;;;5040072;28;19912;-77
2021/07/17 04:17:21;;;;;;;;;;;14.40;99.90;;;;;;5022601;28;19904;-77
2021/07/17 04:19:47;;;;;;;;;;;14.50;99.90;;;;;;5042761;28;20281;-78
2021/07/17 04:22:13;;;;;;;;;;;14.50;99.90;;;;;;5026196;28;19959;-78
2021/07/17 04:24:38;;;;;;;;;;;14.60;99.90;;;;;;5043997;28;19905;-78
2021/07/17 04:27:04;;;;;;;;;;;14.60;99.90;;;;;;5026576;28;19909;-78
2021/07/17 04:29:29;;;;;;;;;;;14.60;99.90;;;;;;5010575;28;19936;-78
2021/07/17 04:31:55;;;;;;;;;;;14.70;99.90;;;;;;5019927;28;19914;-77
2021/07/17 04:34:20;;;;;;;;;;;14.70;99.90;;;;;;5020335;28;19905;-77
2021/07/17 04:36:46;;;;;;;;;;;14.80;99.90;;;;;;5021230;28;19905;-76
2021/07/17 04:39:11;;;;;;;;;;;14.80;99.90;;;;;;5002802;28;19905;-77
2021/07/17 04:41:37;;;;;;;;;;;14.90;99.90;;;;;;5020159;28;19909;-77
2021/07/17 04:44:02;;;;;;;;;;;15.00;99.90;;;;;;5019978;28;19906;-77
2021/07/17 04:46:28;;;;;;;;;;;15.00;99.90;;;;;;5002479;28;19905;-76
2021/07/17 04:48:53;;;;;;;;;;;15.10;99.90;;;;;;5027990;28;19916;-76
2021/07/17 04:51:19;;;;;;;;;;;15.10;99.90;;;;;;5039926;28;20296;-75
2021/07/17 04:53:44;;;;;;;;;;;15.20;99.90;;;;;;5039731;28;19905;-76
2021/07/17 04:56:10;;;;;;;;;;;15.30;99.90;;;;;;5022056;28;19909;-76
2021/07/17 04:58:35;;;;;;;;;;;15.40;99.90;;;;;;5034315;28;19910;-76
2021/07/17 05:01:00;;;;;;;;;;;15.50;99.90;;;;;;5020155;28;19909;-76
2021/07/17 05:03:26;;;;;;;;;;;15.60;99.90;;;;;;5003136;28;19932;-77
2021/07/17 05:05:51;;;;;;;;;;;15.70;99.90;;;;;;5037853;28;19909;-77
2021/07/17 05:08:17;;;;;;;;;;;15.80;99.90;;;;;;5019369;28;19905;-77
2021/07/17 05:10:42;;;;;;;;;;;16.00;99.90;;;;;;5037358;28;20282;-77
2021/07/17 05:13:15;;;;;;;;;;;16.10;99.90;;;;;;5036880;28;19959;-77
2021/07/17 05:15:41;;;;;;;;;;;16.20;99.90;;;;;;5002652;28;19920;-77
2021/07/17 05:18:07;;;;;;;;;;;16.30;99.90;;;;;;5017096;28;19906;-77
2021/07/17 05:20:32;;;;;;;;;;;16.50;99.90;;;;;;5016672;28;19996;-77
2021/07/17 05:22:58;;;;;;;;;;;16.60;99.90;;;;;;5017170;28;19905;-78
2021/07/17 05:25:23;;;;;;;;;;;16.70;99.90;;;;;;5032481;28;19909;-78
2021/07/17 05:27:49;;;;;;;;;;;16.80;99.90;;;;;;5020154;28;19905;-78
2021/07/17 05:30:14;;;;;;;;;;;16.90;99.90;;;;;;5036553;28;20359;-78
2021/07/17 05:32:40;;;;;;;;;;;17.00;99.90;;;;;;5037649;28;20362;-76
2021/07/17 05:35:06;;;;;;;;;;;17.10;99.90;;;;;;5007658;28;19909;-76
2021/07/17 05:37:31;;;;;;;;;;;17.20;99.90;;;;;;5016447;28;19906;-76
2021/07/17 05:39:57;;;;;;;;;;;17.20;99.90;;;;;;4999025;28;20366;-76
2021/07/17 05:42:23;;;;;;;;;;;17.40;99.90;;;;;;5016647;28;20019;-76
2021/07/17 05:44:49;;;;;;;;;;;17.50;99.90;;;;;;5024531;28;19909;-77
2021/07/17 05:47:15;;;;;;;;;;;17.50;99.90;;;;;;5035591;28;19970;-77
2021/07/17 05:49:40;;;;;;;;;;;17.60;99.90;;;;;;5036081;28;19909;-78
2021/07/17 05:52:06;;;;;;;;;;;17.60;99.90;;;;;;5018026;28;20389;-77
2021/07/17 05:54:31;;;;;;;;;;;17.80;99.90;;;;;;4998787;28;19958;-77
2021/07/17 05:56:57;;;;;;;;;;;17.80;99.90;;;;;;5015985;28;19906;-77
2021/07/17 05:59:22;;;;;;;;;;;17.90;99.90;;;;;;5015980;28;19905;-75
2021/07/17 06:01:49;;;;;;;;;;;18.30;99.90;;;;;;4998463;28;19905;-78
2021/07/17 06:04:14;;;;;;;;;;;18.10;99.90;;;;;;5034793;28;19913;-79
2021/07/17 06:06:39;;;;;;;;;;;18.20;99.90;;;;;;5039470;28;19967;-79
2021/07/17 06:09:05;;;;;;;;;;;18.30;99.90;;;;;;5021243;28;19956;-79
2021/07/17 06:11:30;;;;;;;;;;;18.50;99.90;;;;;;5038237;28;19909;-78
2021/07/17 06:13:56;;;;;;;;;;;18.60;99.90;;;;;;5037242;28;19955;-78
2021/07/17 06:16:23;;;;;;;;;;;18.70;99.90;;;;;;5017833;28;19925;-76
2021/07/17 06:18:48;;;;;;;;;;;18.80;99.90;;;;;;5036184;28;19905;-77
2021/07/17 06:21:13;;;;;;;;;;;18.90;99.90;;;;;;5020271;28;19911;-78
2021/07/17 06:23:39;;;;;;;;;;;19.00;99.90;;;;;;5007533;28;20003;-74
2021/07/17 06:26:05;;;;;;;;;;;19.10;99.90;;;;;;5016169;28;19913;-80
2021/07/17 06:28:31;;;;;;;;;;;19.90;99.90;;;;;;5016126;28;19992;-75
2021/07/17 06:30:57;;;;;;;;;;;19.20;99.90;;;;;;5017042;28;19964;-75
2021/07/17 06:33:22;;;;;;;;;;;19.20;99.90;;;;;;5017137;28;19931;-75
2021/07/17 06:35:47;;;;;;;;;;;19.30;99.90;;;;;;5034981;28;19955;-74
2021/07/17 06:38:13;;;;;;;;;;;19.50;99.90;;;;;;5034795;28;19905;-74
2021/07/17 06:40:38;;;;;;;;;;;19.70;99.90;;;;;;5035259;28;19905;-74
2021/07/17 06:43:04;;;;;;;;;;;19.80;99.90;;;;;;5034997;28;19987;-73
2021/07/17 06:45:29;;;;;;;;;;;19.90;99.90;;;;;;5017017;28;20401;-74
2021/07/17 06:47:55;;;;;;;;;;;20.10;99.90;;;;;;5016950;28;20215;-74
2021/07/17 06:50:21;;;;;;;;;;;20.40;99.90;;;;;;5034497;28;19913;-74
2021/07/17 06:52:47;;;;;;;;;;;20.20;99.90;;;;;;5034596;28;19905;-74
2021/07/17 06:55:12;;;;;;;;;;;20.20;99.90;;;;;;5017025;28;19912;-74
2021/07/17 06:57:38;;;;;;;;;;;20.30;99.90;;;;;;5016806;28;19999;-74
2021/07/17 07:00:05;;;;;;;;;;;20.40;99.90;;;;;;5034629;28;19935;-74
2021/07/17 07:02:30;;;;;;;;;;;20.40;99.90;;;;;;5016782;28;19956;-74
2021/07/17 07:04:56;;;;;;;;;;;20.60;99.90;;;;;;5034256;28;20266;-74
2021/07/17 07:07:21;;;;;;;;;;;20.60;99.90;;;;;;5034464;28;19905;-74
2021/07/17 07:09:46;;;;;;;;;;;20.70;99.90;;;;;;5016540;28;19905;-73
2021/07/17 07:12:12;;;;;;;;;;;20.70;99.90;;;;;;5034184;28;20354;-73
2021/07/17 07:14:37;;;;;;;;;;;21.10;99.90;;;;;;5034310;28;20290;-73
2021/07/17 07:17:03;;;;;;;;;;;20.80;99.90;;;;;;5016441;28;19927;-73
2021/07/17 07:19:28;;;;;;;;;;;20.90;99.90;;;;;;5016402;28;19912;-73
2021/07/17 07:21:54;;;;;;;;;;;21.00;99.90;;;;;;5016435;28;19935;-73
2021/07/17 07:24:20;;;;;;;;;;;21.00;99.90;;;;;;5033978;28;20013;-73
2021/07/17 07:26:45;;;;;;;;;;;21.10;99.90;;;;;;5016437;28;20342;-75
2021/07/17 07:29:11;;;;;;;;;;;21.30;99.90;;;;;;5015819;28;19905;-77
2021/07/17 07:31:36;;;;;;;;;;;21.60;99.90;;;;;;5014340;28;19953;-77
2021/07/17 07:34:01;;;;;;;;;;;21.60;99.90;;;;;;4997460;28;20256;-77
2021/07/17 07:36:27;;;;;;;;;;;21.70;99.90;;;;;;5015221;28;19912;-77
2021/07/17 07:38:52;;;;;;;;;;;21.80;99.90;;;;;;5029768;28;19909;-78
2021/07/17 07:41:18;;;;;;;;;;;21.90;99.90;;;;;;5036259;28;19955;-74
2021/07/17 07:43:47;;;;;;;;;;;21.90;99.90;;;;;;5041585;22;19971;-88
2021/07/17 07:46:13;;;;;;;;;;;21.90;99.90;;;;;;5012315;28;19909;-87
2021/07/17 07:48:41;;;;;;;;;;;22.80;99.90;;;;;;4989129;28;20283;-89
2021/07/17 07:51:06;;;;;;;;;;;22.00;99.90;;;;;;5001522;28;19976;-87
2021/07/17 07:53:32;;;;;;;;;;;22.10;99.90;;;;;;4987255;28;19905;-87
2021/07/17 07:55:59;;;;;;;;;;;23.90;99.90;;;;;;4979454;28;19906;-85
2021/07/17 07:58:26;;;;;;;;;;;24.90;99.90;;;;;;4998482;28;20379;-87
2021/07/17 08:00:51;;;;;;;;;;;22.30;99.90;;;;;;4983973;28;19933;-85
2021/07/17 08:03:17;;;;;;;;;;;22.30;99.90;;;;;;4981936;28;20268;-84
2021/07/17 08:05:42;;;;;;;;;;;22.60;99.90;;;;;;4981667;28;19906;-86
2021/07/17 08:08:08;;;;;;;;;;;24.60;99.90;;;;;;4986044;28;19913;-84
2021/07/17 08:10:33;;;;;;;;;;;23.60;99.90;;;;;;4980655;28;19910;-84
2021/07/17 08:12:59;;;;;;;;;;;24.20;99.90;;;;;;4980711;28;20330;-85
2021/07/17 08:15:24;;;;;;;;;;;25.60;99.90;;;;;;4998006;28;19910;-85
2021/07/17 08:17:50;;;;;;;;;;;23.20;99.90;;;;;;4997222;28;19905;-85
2021/07/17 08:20:16;;;;;;;;;;;22.80;99.90;;;;;;5009354;28;20393;-86
2021/07/17 08:22:42;;;;;;;;;;;21.70;99.90;;;;;;5001507;28;19910;-86
2021/07/17 08:25:08;;;;;;;;;;;22.90;99.90;;;;;;5004478;28;20000;-86
2021/07/17 08:27:36;;;;;;;;;;;22.90;99.90;;;;;;4981311;28;19913;-86
2021/07/17 08:30:05;;;;;;;;;;;22.90;99.90;;;;;;4981457;28;19910;-86
2021/07/17 08:32:31;;;;;;;;;;;22.80;99.90;;;;;;4985867;28;19910;-86
2021/07/17 08:34:56;;;;;;;;;;;22.80;99.90;;;;;;5013757;28;20474;-86
2021/07/17 08:37:22;;;;;;;;;;;22.80;99.90;;;;;;5000167;28;20004;-86
2021/07/17 08:39:48;;;;;;;;;;;23.60;99.90;;;;;;4987327;28;20268;-85
2021/07/17 08:42:15;;;;;;;;;;;22.90;99.90;;;;;;5000525;28;19906;-86
2021/07/17 08:44:41;;;;;;;;;;;23.10;99.90;;;;;;5016912;23;19929;-78
2021/07/17 08:47:08;;;;;;;;;;;23.20;99.90;;;;;;5020406;28;19968;-77
2021/07/17 08:49:33;;;;;;;;;;;23.30;99.90;;;;;;5020114;28;20405;-77
2021/07/17 08:52:02;;;;;;;;;;;23.40;99.90;;;;;;5021518;28;19913;-76
2021/07/17 08:54:29;;;;;;;;;;;23.50;99.90;;;;;;5015654;28;19906;-76
2021/07/17 08:56:55;;;;;;;;;;;23.60;99.90;;;;;;5028662;28;19916;-77
2021/07/17 08:59:20;;;;;;;;;;;23.60;99.00;;;;;;5036496;28;19905;-76
2021/07/17 09:01:47;;;;;;;;;;;23.60;99.70;;;;;;5037160;28;19909;-75
2021/07/17 09:04:12;;;;;;;;;;;23.60;99.90;;;;;;5039909;28;20354;-75
2021/07/17 09:06:38;;;;;;;;;;;23.50;98.80;;;;;;5042209;28;19911;-79
2021/07/17 09:09:05;;;;;;;;;;;23.50;99.90;;;;;;5041234;28;19905;-78
2021/07/17 09:11:40;;;;;;;;;;;23.60;99.90;;;;;;5040879;28;19944;-75
2021/07/17 09:14:06;;;;;;;;;;;23.70;98.00;;;;;;5041573;28;20329;-76
2021/07/17 09:16:33;;;;;;;;;;;23.80;97.70;;;;;;5040451;28;20281;-76
2021/07/17 09:18:58;;;;;;;;;;;23.80;97.80;;;;;;5023401;28;20342;-77
2021/07/17 09:21:32;;;;;;;;;;;23.80;98.90;;;;;;5041223;28;19905;-79
2021/07/17 09:23:57;;;;;;;;;;;23.80;98.60;;;;;;5025120;28;19905;-80
2021/07/17 09:26:24;;;;;;;;;;;23.90;98.80;;;;;;5040879;28;19928;-78
2021/07/17 09:29:00;;;;;;;;;;;23.90;97.30;;;;;;5024104;28;20461;-76
2021/07/17 09:31:27;;;;;;;;;;;24.00;96.70;;;;;;5039758;28;20432;-76
2021/07/17 09:34:01;;;;;;;;;;;24.10;97.70;;;;;;5039900;28;20009;-76
2021/07/17 09:36:26;;;;;;;;;;;24.00;97.30;;;;;;5040855;28;19916;-76
2021/07/17 09:38:52;;;;;;;;;;;24.20;96.40;;;;;;5030757;28;19913;-76
2021/07/17 09:41:18;;;;;;;;;;;24.60;94.20;;;;;;5017490;28;19905;-76
2021/07/17 09:43:44;;;;;;;;;;;24.20;93.60;;;;;;5020300;28;19921;-76
2021/07/17 09:46:15;;;;;;;;;;;24.40;96.10;;;;;;5020475;28;19928;-80
2021/07/17 09:48:44;;;;;;;;;;;24.50;96.40;;;;;;5029269;28;19932;-77
2021/07/17 09:51:10;;;;;;;;;;;24.70;94.20;;;;;;5025235;28;19915;-77
2021/07/17 09:56:35;;;;;;;1.55;0.00;;;25.00;92.50;;;;;;5115627;27;20660;-78
2021/07/17 09:59:04;;;;;;;1.50;0.20;;;24.90;88.40;;;;;;5081538;28;20021;-77
2021/07/17 10:01:37;;;;;;;1.17;0.00;;;24.90;91.20;;;;;;5074758;28;20048;-78
2021/07/17 10:04:08;;;;;;;0.77;0.00;;;24.90;90.10;;;;;;5074584;28;20017;-77
2021/07/17 10:06:46;;;;;;;2.25;0.22;;;25.20;90.00;;;;;;5074776;28;20032;-77
2021/07/17 10:09:11;;;;;;;;;;;25.10;90.50;;;;;;5074876;28;20021;-77
2021/07/17 10:11:37;;;;;;;1.52;0.00;;;25.20;90.50;;;;;;5074778;28;19964;-77
2021/07/17 10:14:16;;;;;;;1.08;0.20;;;25.10;88.70;;;;;;5073672;28;20092;-77
2021/07/17 10:16:43;;;;;;;1.17;0.00;;;25.20;89.00;;;;;;5084907;28;20036;-77
2021/07/17 10:19:12;;;;;;;0.68;0.00;;;25.40;90.00;;;;;;5094610;28;20405;-78
2021/07/17 10:21:38;;;;;;;0.70;0.20;;;25.60;88.70;;;;;;5095734;28;20043;-80
2021/07/17 10:24:04;;;;;;;2.13;0.20;;;25.80;85.90;;;;;;5090006;28;20020;-77
2021/07/17 10:26:31;;;;;;;3.20;0.05;;;25.80;82.70;;;;;;5071900;28;20096;-77
2021/07/17 10:29:03;;;;;;;2.30;0.00;;;25.80;82.70;;;;;;5071210;28;20107;-77
2021/07/17 10:31:29;;;;;;;0.25;0.00;;;25.80;80.90;;;;;;5072719;28;20027;-76
2021/07/17 10:33:54;;;;;;;0.32;0.00;;;25.80;79.30;;;;;;5078872;28;20099;-77
2021/07/17 10:36:22;;;;;;;1.45;0.00;;;25.90;80.20;;;;;;5094483;28;20028;-77
2021/07/17 10:38:52;;;;;;;0.55;0.00;;;25.90;78.90;;;;;;5092916;28;20056;-77
2021/07/17 10:41:20;;;;;;;0.50;0.00;;;26.10;82.30;;;;;;5091333;28;20029;-78
2021/07/17 10:43:54;;;;;;;0.80;0.00;;;26.10;79.70;;;;;;5075873;28;20047;-78
2021/07/17 10:46:27;;;;;;;0.50;0.00;;;26.10;80.10;;;;;;5078365;28;20024;-78
2021/07/17 10:48:54;;;;;;;0.57;0.10;;;26.30;74.10;;;;;;5079543;28;20024;-78
2021/07/17 10:51:30;;;;;;;0.23;0.00;;;26.20;73.50;;;;;;5079387;28;20024;-78
2021/07/17 10:54:00;;;;;;;0.45;0.00;;;26.30;75.80;;;;;;5080456;28;20084;-78
2021/07/17 10:56:29;;;;;;;0.00;0.00;;;26.40;71.50;;;;;;5078729;28;20033;-78
2021/07/17 10:59:02;;;;;;;0.47;0.00;;;26.40;72.70;;;;;;5080184;28;20135;-78
2021/07/17 11:01:56;;;;;;;0.98;0.00;;;26.60;72.50;;;;;;5084669;28;20088;-78
2021/07/17 11:04:49;;;;;;;1.38;0.00;;;26.60;71.30;;;;;;5098295;28;20020;-78
2021/07/17 11:07:18;;;;;;;0.40;0.13;;;26.80;76.30;;;;;;5084884;28;20029;-79
2021/07/17 11:09:54;;;;;;;0.70;0.00;;;27.10;76.80;;;;;;5080579;28;20032;-79
2021/07/17 11:12:28;;;;;;;2.65;0.40;;;27.20;71.00;;;;;;5081356;28;20025;-79
2021/07/17 11:14:55;;;;;;;0.00;0.00;;;27.40;72.10;;;;;;5082127;28;20020;-79
2021/07/17 11:17:51;;;;;;;2.03;0.00;;;27.60;74.50;;;;;;5079570;28;20017;-79
2021/07/17 11:20:28;;;;;;;2.63;0.00;;;27.60;68.60;;;;;;5065362;28;20128;-79
2021/07/17 11:23:13;;;;;;;0.93;0.10;;;27.50;71.10;;;;;;5079732;28;20017;-79
2021/07/17 11:26:01;;;;;;;1.40;0.20;;;27.50;68.60;;;;;;5084007;28;20020;-79
2021/07/17 11:28:47;;;;;;;2.08;0.17;;;27.50;72.90;;;;;;5081707;28;20032;-79
2021/07/17 11:31:50;;;;;;;0.63;0.00;;;27.70;75.40;;;;;;5080620;28;20052;-79
2021/07/17 11:34:25;;;;;;;0.00;0.00;;;27.90;71.80;;;;;;5072126;28;20092;-79
2021/07/17 11:36:53;;;;;;;3.78;0.00;;;28.10;70.00;;;;;;5079965;28;20048;-79
2021/07/17 11:39:21;;;;;;;0.38;0.00;;;28.00;68.30;;;;;;5080324;28;20426;-79
2021/07/17 11:41:48;;;;;;;0.47;0.00;;;27.70;70.80;;;;;;5078135;28;20024;-79
2021/07/17 11:44:14;;;;;;;0.50;0.00;;;27.60;66.20;;;;;;5077088;28;20024;-79
2021/07/17 11:47:01;;;;;;;0.22;0.10;;;27.60;70.60;;;;;;5077690;28;20020;-80
2021/07/17 11:49:28;;;;;;;2.42;0.00;;;27.60;71.60;;;;;;5077767;28;20492;-80
2021/07/17 11:51:57;;;;;;;1.27;0.00;;;27.70;68.30;;;;;;5081096;28;20048;-80
2021/07/17 11:54:35;;;;;;;0.55;0.00;;;27.90;71.80;;;;;;5080875;28;20029;-79
2021/07/17 11:57:02;;;;;;;0.52;0.00;;;27.90;71.50;;;;;;5080976;28;20013;-79
2021/07/17 11:59:28;;;;;;;0.25;0.13;;;28.10;67.70;;;;;;5078655;28;20107;-79
2021/07/17 12:01:59;;;;;;;0.13;0.00;;;27.90;69.60;;;;;;5079779;28;20052;-79
2021/07/17 12:04:33;;;;;;;0.70;0.00;;;28.10;67.30;;;;;;5081757;28;20029;-79
2021/07/17 12:07:09;;;;;;;2.38;0.17;;;28.40;67.20;;;;;;5079861;28;20025;-79
2021/07/17 12:09:56;;;;;;;0.63;0.15;;;28.50;64.30;;;;;;5080599;28;20032;-79
2021/07/17 12:12:22;;;;;;;0.15;0.00;;;28.20;65.50;;;;;;5079066;28;20474;-78
2021/07/17 12:14:56;;;;;;;0.00;0.00;;;28.20;64.20;;;;;;5078662;28;20060;-78
2021/07/17 12:17:23;;;;;;;1.40;0.00;;;28.10;64.30;;;;;;5080109;28;20058;-78
2021/07/17 12:20:00;;;;;;;0.32;0.10;;;28.50;67.40;;;;;;5080014;28;20028;-79
2021/07/17 12:22:25;;;;;;;0.35;0.00;;;28.80;67.30;;;;;;5080395;28;20044;-79
2021/07/17 12:25:16;;;;;;;0.10;0.00;;;28.90;66.10;;;;;;5081082;28;20424;-79
2021/07/17 12:27:53;;;;;;;0.47;0.00;;;29.10;64.90;;;;;;5080259;28;20040;-78
2021/07/17 12:30:19;;;;;;;1.42;0.10;;;29.20;62.90;;;;;;5079951;28;20024;-78
2021/07/17 12:32:45;;;;;;;0.25;0.00;;;29.30;63.70;;;;;;5080091;28;20029;-78
2021/07/17 12:35:10;;;;;;;1.13;0.00;;;29.30;65.40;;;;;;5079766;28;20025;-78
2021/07/17 12:37:37;;;;;;;0.73;0.00;;;29.50;60.20;;;;;;5078947;28;20013;-78
2021/07/17 12:40:10;;;;;;;1.15;0.00;;;29.70;61.10;;;;;;5078845;28;20025;-79
2021/07/17 12:42:47;;;;;;;0.47;0.00;;;29.70;59.50;;;;;;5076848;28;20500;-79
2021/07/17 12:45:21;;;;;;;0.65;0.00;;;29.90;58.30;;;;;;5079913;28;20051;-79
2021/07/17 12:47:50;;;;;;;0.47;0.00;;;29.90;60.00;;;;;;5080141;28;20100;-79
2021/07/17 12:50:21;;;;;;;0.82;0.00;;;30.00;60.00;;;;;;5078482;28;20033;-79
2021/07/17 12:52:47;;;;;;;0.95;0.00;;;30.10;57.80;;;;;;5077526;28;20032;-79
2021/07/17 12:55:13;;;;;;;1.55;0.10;;;30.50;60.60;;;;;;5079834;28;20025;-79
2021/07/17 12:57:39;;;;;;;0.40;0.00;;;30.60;59.10;;;;;;5080022;28;20028;-78
2021/07/17 13:00:06;;;;;;;1.45;0.00;;;30.80;61.00;;;;;;5078313;28;20168;-78
2021/07/17 13:02:32;;;;;;;2.13;0.00;;;30.70;60.10;;;;;;5079025;28;20029;-79
2021/07/17 13:04:57;;;;;;;1.45;0.13;;;31.10;57.30;;;;;;5079287;28;20017;-80
2021/07/17 13:07:35;;;;;;;1.75;0.30;;;30.80;57.60;;;;;;5079657;28;20104;-79
2021/07/17 13:10:03;;;;;;;0.88;0.10;;;30.90;56.60;;;;;;5079798;28;20084;-80
2021/07/17 13:12:30;;;;;;;0.28;0.00;;;31.30;57.40;;;;;;5078628;28;20013;-79
2021/07/17 13:14:57;;;;;;;0.63;0.28;;;30.90;55.20;;;;;;5076369;28;20408;-79
2021/07/17 13:17:23;;;;;;;2.70;0.63;;;30.80;57.70;;;;;;5069262;28;20017;-79
2021/07/17 13:20:05;;;;;;;1.15;0.00;;;30.50;55.70;;;;;;5058561;28;20028;-79
2021/07/17 13:22:49;;;;;;;0.90;0.00;;;30.60;57.80;;;;;;5053524;28;20021;-78
2021/07/17 13:25:19;;;;;;;0.82;0.00;;;30.90;58.90;;;;;;5053668;28;20025;-77
2021/07/17 13:27:45;;;;;;;1.42;0.08;;;31.00;56.70;;;;;;5064963;28;20028;-77
2021/07/17 13:30:12;;;;;;;2.97;0.08;;;30.80;59.00;;;;;;5073122;28;20033;-77
2021/07/17 13:32:43;;;;;;;1.55;0.00;;;30.80;58.20;;;;;;5071947;28;20509;-77
2021/07/17 13:35:17;;;;;;;2.08;0.00;;;30.80;56.60;;;;;;5073347;28;20023;-77
2021/07/17 13:37:44;;;;;;;0.20;0.00;;;30.70;55.80;;;;;;5061828;28;20372;-77
2021/07/17 13:40:11;;;;;;;1.33;0.00;;;30.70;59.30;;;;;;5052022;28;20025;-77
2021/07/17 13:42:38;;;;;;;1.90;0.10;;;30.80;56.60;;;;;;5054834;28;20021;-79
2021/07/17 13:45:10;;;;;;;1.95;0.00;;;31.10;56.10;;;;;;5054311;28;20013;-79
2021/07/17 13:47:37;;;;;;;2.95;0.30;;;31.50;57.30;;;;;;5054433;28;20053;-77
2021/07/17 13:50:04;;;;;;;1.45;0.00;;;31.70;57.20;;;;;;5062582;28;20102;-77
2021/07/17 13:52:38;;;;;;;0.43;0.10;;;31.80;55.40;;;;;;5071849;28;20094;-77
2021/07/17 13:55:08;;;;;;;1.45;0.00;;;32.00;53.40;;;;;;5072937;28;20047;-77